»·PEaware :: SWA1756 KLAS-KSFO

SWA1756 :: KLAS-KSFO

FLIGHT INFORMATION

Flight Status: Arrived
Operator:
Southwest Airlines
More flights by this operator :: More flights under this callsign
Pilot: Tim M. (868)
Aircraft: BOEING 737-800
(B738)
More flights by this aircraft type
Origin: KLAS McCarran Intl
United States
Destination: KSFO San Francisco Intl
United States
More flights between these airports :: More routes between these airports
Route: +SHEAD1 OAL INYOE DYAMD5
File this flight plan on PilotEdge
Remarks:
Altitude:
(Current/Filed)
34,000ft
Speed:
(Current/Filed)
418kts
Departed: 16-Aug-20 10:15 AM
Arrived: 16-Aug-20 11:25 AM
Distance/Time
Traveled:
359nm/1:09
Distance/Time
To Go:
Arrived

Flight Plot

Page will automatically refresh every two minutes.

Flight plan parsing failed; only flown route is shown


Map Options




Map Legend


Flown Route
Filed Route
Departure Airport
Arrival Airport
Navaid (VOR, NDB)
Fix

Horizontal Profiles

Position Reports

Time Latitude Longitude Heading Altitude Ground
Speed
16-Aug-20 09:27 36.080108 -115.145550 280 2189ft 0kts
16-Aug-20 09:28 36.080108 -115.145550 280 2189ft 0kts
16-Aug-20 09:29 36.080108 -115.145550 280 2189ft 0kts
16-Aug-20 09:30 36.080108 -115.145550 280 2189ft 0kts
16-Aug-20 09:31 36.080108 -115.145550 280 2189ft 0kts
16-Aug-20 09:32 36.080108 -115.145550 280 2189ft 0kts
16-Aug-20 09:33 36.080108 -115.145550 280 2189ft 0kts
16-Aug-20 09:34 36.080108 -115.145550 280 2189ft 0kts
16-Aug-20 09:35 36.080108 -115.145550 280 2189ft 0kts
16-Aug-20 09:36 36.080108 -115.145550 280 2189ft 0kts
16-Aug-20 09:37 36.080108 -115.145550 280 2189ft 0kts
16-Aug-20 09:38 36.080108 -115.145550 280 2189ft 0kts
16-Aug-20 09:39 36.080108 -115.145550 280 2189ft 0kts
16-Aug-20 09:40 36.080108 -115.145550 280 2189ft 0kts
16-Aug-20 09:41 36.080108 -115.145550 280 2189ft 0kts
16-Aug-20 09:42 36.080108 -115.145550 280 2189ft 0kts
16-Aug-20 09:43 36.080108 -115.145550 280 2189ft 0kts
16-Aug-20 09:44 36.080108 -115.145550 280 2189ft 0kts
16-Aug-20 09:45 36.080108 -115.145550 280 2189ft 0kts
16-Aug-20 09:46 36.080108 -115.145550 280 2189ft 0kts
16-Aug-20 09:47 36.080108 -115.145550 280 2189ft 0kts
16-Aug-20 09:48 36.080108 -115.145550 280 2189ft 0kts
16-Aug-20 09:49 36.080108 -115.145550 280 2189ft 0kts
16-Aug-20 09:50 36.080108 -115.145550 280 2189ft 0kts
16-Aug-20 09:51 36.080108 -115.145550 280 2189ft 0kts
16-Aug-20 09:52 36.080108 -115.145550 280 2189ft 0kts
16-Aug-20 09:53 36.080086 -115.145383 278 2189ft 2kts
16-Aug-20 09:54 36.080132 -115.144807 179 2189ft 2kts
16-Aug-20 09:55 36.080498 -115.144803 180 2189ft 0kts
16-Aug-20 09:56 36.080498 -115.144803 180 2189ft 0kts
16-Aug-20 09:57 36.080498 -115.144803 180 2189ft 0kts
16-Aug-20 09:58 36.080498 -115.144803 180 2189ft 0kts
16-Aug-20 09:59 36.080498 -115.144803 180 2189ft 0kts
16-Aug-20 10:00 36.080498 -115.144803 180 2189ft 0kts
16-Aug-20 10:01 36.080351 -115.144821 187 2189ft 4kts
16-Aug-20 10:02 36.078449 -115.146085 275 2189ft 12kts
16-Aug-20 10:03 36.077958 -115.149844 275 2189ft 12kts
16-Aug-20 10:04 36.078046 -115.155362 269 2189ft 17kts
16-Aug-20 10:05 36.078036 -115.160604 269 2189ft 13kts
16-Aug-20 10:06 36.078034 -115.163624 270 2189ft 0kts
16-Aug-20 10:07 36.077568 -115.163433 191 2189ft 4kts
16-Aug-20 10:08 36.077495 -115.163456 194 2189ft 0kts
16-Aug-20 10:09 36.077494 -115.163457 194 2189ft 0kts
16-Aug-20 10:10 36.077493 -115.163457 194 2189ft 0kts
16-Aug-20 10:11 36.077491 -115.163457 194 2189ft 0kts
16-Aug-20 10:12 36.077490 -115.163458 194 2189ft 0kts
16-Aug-20 10:13 36.076378 -115.163329 90 2189ft 10kts
16-Aug-20 10:14 36.076422 -115.131318 90 2471ft 179kts
16-Aug-20 10:15 36.075963 -115.065528 89 4886ft 221kts
16-Aug-20 10:16 36.075245 -114.975555 98 6374ft 292kts
16-Aug-20 10:17 36.014448 -114.920354 177 8901ft 303kts
16-Aug-20 10:18 35.931098 -114.925917 217 11208ft 333kts
16-Aug-20 10:19 35.865688 -115.020389 223 12750ft 381kts
16-Aug-20 10:20 35.825184 -115.135948 273 15255ft 390kts
16-Aug-20 10:21 35.837604 -115.270735 276 17579ft 401kts
16-Aug-20 10:22 35.849517 -115.409834 275 19665ft 414kts
16-Aug-20 10:23 35.861744 -115.553605 275 21493ft 428kts
16-Aug-20 10:24 35.874396 -115.701549 275 23074ft 441kts
16-Aug-20 10:25 35.886524 -115.854386 274 24543ft 452kts
16-Aug-20 10:26 35.923322 -116.001232 308 25943ft 462kts
16-Aug-20 10:27 36.017151 -116.111726 317 27213ft 470kts
16-Aug-20 10:28 36.113729 -116.222661 316 28353ft 478kts
16-Aug-20 10:29 36.211803 -116.335690 316 29599ft 480kts
16-Aug-20 10:30 36.309011 -116.448261 315 31200ft 474kts
16-Aug-20 10:31 36.403881 -116.559180 314 32859ft 466kts
16-Aug-20 10:32 36.497857 -116.669119 313 34065ft 464kts
16-Aug-20 10:33 36.596219 -116.772620 324 34095ft 463kts
16-Aug-20 10:34 36.706497 -116.856372 326 34121ft 464kts
16-Aug-20 10:35 36.816286 -116.940107 325 34138ft 463kts
16-Aug-20 10:36 36.926628 -117.024152 325 34154ft 463kts
16-Aug-20 10:37 37.036270 -117.108032 326 34176ft 462kts
16-Aug-20 10:38 37.145712 -117.192182 325 34198ft 462kts
16-Aug-20 10:39 37.255146 -117.276882 325 34218ft 461kts
16-Aug-20 10:40 37.367181 -117.356021 330 34235ft 462kts
16-Aug-20 10:41 37.481512 -117.429248 329 34289ft 461kts
16-Aug-20 10:42 37.595539 -117.503475 329 34308ft 461kts
16-Aug-20 10:44 37.709771 -117.577683 329 34285ft 460kts
16-Aug-20 10:45 37.823668 -117.652052 329 34283ft 460kts
16-Aug-20 10:46 37.936694 -117.727240 324 34275ft 458kts
16-Aug-20 10:47 37.991824 -117.860863 268 34292ft 441kts
16-Aug-20 10:48 37.977582 -118.015042 260 34278ft 439kts
16-Aug-20 10:49 37.960687 -118.168247 261 34269ft 440kts
16-Aug-20 10:50 37.944489 -118.322252 261 34262ft 440kts
16-Aug-20 10:51 37.928114 -118.476030 260 34341ft 441kts
16-Aug-20 10:52 37.910906 -118.629568 260 34394ft 442kts
16-Aug-20 10:53 37.893446 -118.784191 259 34426ft 443kts
16-Aug-20 10:54 37.875725 -118.938229 259 34450ft 444kts
16-Aug-20 10:55 37.857622 -119.093131 258 34439ft 445kts
16-Aug-20 10:56 37.839662 -119.248746 258 34397ft 446kts
16-Aug-20 10:57 37.821747 -119.404132 258 34347ft 448kts
16-Aug-20 10:58 37.803257 -119.560002 257 34286ft 449kts
16-Aug-20 10:58 37.787603 -119.690318 257 34236ft 449kts
16-Aug-20 11:00 37.765428 -119.872771 257 34147ft 450kts
16-Aug-20 11:01 37.746447 -120.028613 257 32218ft 448kts
16-Aug-20 11:01 37.730710 -120.156243 257 30407ft 436kts
16-Aug-20 11:02 37.711830 -120.304936 257 28386ft 422kts
16-Aug-20 11:04 37.691268 -120.473481 257 26042ft 414kts
16-Aug-20 11:05 37.674628 -120.615805 256 23898ft 406kts
16-Aug-20 11:05 37.660799 -120.732103 256 22242ft 395kts
16-Aug-20 11:06 37.644639 -120.867162 256 20624ft 384kts
16-Aug-20 11:08 37.625689 -121.019291 255 18363ft 370kts
16-Aug-20 11:08 37.611532 -121.124481 255 17005ft 361kts
16-Aug-20 11:09 37.594783 -121.248011 255 15385ft 353kts
16-Aug-20 11:10 37.580712 -121.369223 258 13473ft 344kts
16-Aug-20 11:11 37.567143 -121.486294 258 11075ft 336kts
16-Aug-20 11:12 37.554235 -121.595810 258 10075ft 292kts
16-Aug-20 11:13 37.535683 -121.689845 249 9197ft 292kts
16-Aug-20 11:14 37.512349 -121.786024 251 8091ft 278kts
16-Aug-20 11:15 37.490113 -121.878386 250 7038ft 268kts
16-Aug-20 11:16 37.470402 -121.952626 249 6339ft 252kts
16-Aug-20 11:17 37.465924 -122.005794 287 5939ft 238kts
16-Aug-20 11:18 37.495053 -122.082899 298 4572ft 235kts
16-Aug-20 11:19 37.525691 -122.148625 293 3594ft 194kts
16-Aug-20 11:20 37.547887 -122.204549 297 2577ft 160kts
16-Aug-20 11:21 37.568236 -122.253664 291 1714ft 164kts
16-Aug-20 11:22 37.588515 -122.303132 300 962ft 157kts
16-Aug-20 11:23 37.607638 -122.348574 298 251ft 135kts
16-Aug-20 11:24 37.621112 -122.380786 299 21ft 28kts
16-Aug-20 11:25 37.621214 -122.383236 193 21ft 0kts
16-Aug-20 11:26 37.619680 -122.382070 115 21ft 14kts
16-Aug-20 11:27 37.617125 -122.379452 187 21ft 11kts
16-Aug-20 11:28 37.614348 -122.381163 207 21ft 12kts
16-Aug-20 11:29 37.611345 -122.383305 239 21ft 11kts
16-Aug-20 11:30 37.612271 -122.384698 5 21ft 5kts
16-Aug-20 11:31 37.612680 -122.384659 4 21ft 0kts

Navigation Log

Ident Type
Flight plan parsing failed, navigation log unavailable